createdAt,value
2019-05-02T00:00:10.394Z,23.70
2019-05-02T00:01:10.569Z,23.70
2019-05-02T00:02:10.732Z,22.60
2019-05-02T00:03:10.901Z,24.90
2019-05-02T00:04:12.414Z,23.20
2019-05-02T00:05:11.238Z,24.20
2019-05-02T00:06:11.407Z,24.50
2019-05-02T00:07:14.452Z,27.10
2019-05-02T00:08:11.749Z,21.80
2019-05-02T00:09:11.925Z,21.30
2019-05-02T00:10:12.096Z,23.80
2019-05-02T00:11:12.269Z,24.80
2019-05-02T00:12:12.435Z,25.00
2019-05-02T00:13:12.604Z,21.20
2019-05-02T00:14:12.777Z,22.60
2019-05-02T00:15:12.946Z,23.60
2019-05-02T00:16:14.016Z,23.80
2019-05-02T00:17:13.297Z,23.50
2019-05-02T00:18:13.465Z,20.80
2019-05-02T00:19:14.267Z,23.00
2019-05-02T00:20:13.802Z,23.50
2019-05-02T00:21:13.970Z,22.50
2019-05-02T00:22:17.139Z,23.50
2019-05-02T00:23:14.297Z,22.70
2019-05-02T00:24:14.472Z,24.80
2019-05-02T00:25:16.058Z,23.60
2019-05-02T00:26:14.809Z,25.50
2019-05-02T00:27:14.982Z,24.50
2019-05-02T00:28:15.141Z,23.90
2019-05-02T00:29:19.011Z,25.50
2019-05-02T00:30:15.486Z,22.70
2019-05-02T00:31:15.663Z,25.30
2019-05-02T00:32:18.444Z,24.60
2019-05-02T00:33:16.002Z,26.30
2019-05-02T00:34:16.171Z,21.90
2019-05-02T00:35:16.340Z,26.10
2019-05-02T00:36:16.502Z,25.80
2019-05-02T00:37:18.969Z,25.20
2019-05-02T00:38:16.852Z,23.00
2019-05-02T00:39:17.008Z,26.20
2019-05-02T00:40:20.092Z,26.50
2019-05-02T00:41:17.349Z,24.10
2019-05-02T00:42:17.809Z,25.50
2019-05-02T00:43:17.677Z,25.80
2019-05-02T00:44:17.845Z,25.10
2019-05-02T00:45:18.815Z,26.20
2019-05-02T00:46:18.190Z,24.70
2019-05-02T00:47:18.361Z,24.80
2019-05-02T00:48:19.205Z,26.50
2019-05-02T00:49:18.719Z,22.70
2019-05-02T00:50:18.887Z,24.40
2019-05-02T00:51:22.055Z,23.90
2019-05-02T00:52:19.230Z,21.50
2019-05-02T00:53:19.393Z,26.50
2019-05-02T00:54:24.182Z,24.30
2019-05-02T00:55:19.743Z,24.60
2019-05-02T00:56:19.909Z,26.30
2019-05-02T00:57:21.745Z,26.00
2019-05-02T00:58:20.247Z,25.10
2019-05-02T00:59:20.418Z,27.90
2019-05-02T01:00:20.577Z,23.70
2019-05-02T01:01:24.309Z,26.40
2019-05-02T01:02:20.923Z,22.60
2019-05-02T01:03:21.092Z,24.40
2019-05-02T01:04:23.268Z,24.40
2019-05-02T01:05:21.430Z,23.10
2019-05-02T01:06:21.592Z,24.80
2019-05-02T01:07:25.430Z,23.10
2019-05-02T01:08:21.949Z,24.30
2019-05-02T01:10:56.761Z,24.00
2019-05-02T01:11:54.974Z,24.70
2019-05-02T01:12:55.227Z,23.50
2019-05-02T01:13:56.139Z,22.20
2019-05-02T01:14:55.480Z,20.90
2019-05-02T01:15:55.714Z,24.00
2019-05-02T01:16:56.254Z,22.90
2019-05-02T01:17:55.983Z,22.80
2019-05-02T01:18:56.184Z,21.70
2019-05-02T01:19:56.379Z,23.40
2019-05-02T01:20:58.071Z,21.40
2019-05-02T01:21:56.777Z,23.70
2019-05-02T01:22:56.978Z,20.60
2019-05-02T01:23:58.998Z,19.90
2019-05-02T01:24:57.379Z,21.00
2019-05-02T01:25:57.629Z,23.50
2019-05-02T01:26:59.834Z,22.10
2019-05-02T01:27:57.903Z,21.50
2019-05-02T01:28:58.097Z,22.40
2019-05-02T01:30:01.660Z,21.00
2019-05-02T01:30:58.498Z,22.30
2019-05-02T01:31:58.706Z,21.50
2019-05-02T01:33:04.294Z,21.00
2019-05-02T01:33:58.996Z,22.00
2019-05-02T01:34:59.060Z,21.70
2019-05-02T01:36:01.659Z,21.10
2019-05-02T01:36:59.373Z,21.00
2019-05-02T01:37:59.590Z,20.80
2019-05-02T01:39:02.871Z,23.20
2019-05-02T01:39:59.763Z,22.20
2019-05-02T01:40:59.956Z,21.80
2019-05-02T01:42:04.029Z,21.00
2019-05-02T01:43:00.274Z,23.00
2019-05-02T01:44:01.629Z,21.30
2019-05-02T01:45:00.727Z,20.00
2019-05-02T01:46:00.779Z,20.80
2019-05-02T01:47:00.974Z,20.10
2019-05-02T01:48:05.032Z,20.00
2019-05-02T01:49:01.351Z,19.10
2019-05-02T01:50:01.477Z,20.70
2019-05-02T01:51:04.663Z,23.00
2019-05-02T01:52:01.892Z,20.60
2019-05-02T01:53:02.082Z,21.40
2019-05-02T01:54:05.016Z,22.40
2019-05-02T01:55:02.464Z,20.30
2019-05-02T01:56:02.670Z,20.20
2019-05-02T01:57:03.950Z,19.60
2019-05-02T01:58:03.113Z,19.70
2019-05-02T01:59:03.205Z,18.50
2019-05-02T02:00:04.166Z,19.70
2019-05-02T02:01:03.567Z,18.30
2019-05-02T02:02:03.801Z,20.40
2019-05-02T02:03:04.185Z,19.70
2019-05-02T02:04:04.066Z,18.60
2019-05-02T02:05:04.272Z,16.90
2019-05-02T02:06:08.162Z,18.40
2019-05-02T02:07:04.673Z,18.80
2019-05-02T02:08:04.899Z,21.00
2019-05-02T02:09:08.369Z,18.10
2019-05-02T02:10:05.225Z,18.80
2019-05-02T02:11:05.304Z,20.10
2019-05-02T02:12:09.788Z,21.10
2019-05-02T02:13:05.665Z,19.80
2019-05-02T02:14:07.457Z,19.40
2019-05-02T02:15:06.075Z,19.00
2019-05-02T02:16:06.176Z,21.00
2019-05-02T02:17:10.099Z,19.90
2019-05-02T02:18:06.539Z,17.70
2019-05-02T02:19:06.809Z,18.40
2019-05-02T02:20:09.812Z,18.30
2019-05-02T02:21:07.080Z,18.50
2019-05-02T02:22:07.291Z,18.90
2019-05-02T02:23:10.260Z,16.60
2019-05-02T02:24:07.736Z,19.80
2019-05-02T02:25:07.814Z,21.00
2019-05-02T02:26:11.897Z,17.50
2019-05-02T02:27:08.203Z,16.60
2019-05-02T02:28:08.463Z,19.70
2019-05-02T02:29:09.387Z,19.10
2019-05-02T02:30:08.643Z,19.00
2019-05-02T02:31:08.856Z,20.20
2019-05-02T02:32:09.064Z,18.80
2019-05-02T02:33:09.874Z,18.10
2019-05-02T02:34:09.399Z,22.60
2019-05-02T02:35:10.114Z,20.70
2019-05-02T02:36:09.587Z,21.70
2019-05-02T02:37:12.454Z,21.00
2019-05-02T02:38:09.962Z,20.00
2019-05-02T02:39:14.026Z,24.80
2019-05-02T02:40:10.368Z,20.90
2019-05-02T02:41:13.218Z,21.90
2019-05-02T02:42:10.759Z,21.90
2019-05-02T02:43:32.328Z,22.90
2019-05-02T02:44:11.068Z,21.60
2019-05-02T02:45:12.964Z,21.40
2019-05-02T02:46:11.476Z,20.20
2019-05-02T02:47:18.279Z,21.40
2019-05-02T02:48:11.797Z,19.20
2019-05-02T02:49:14.042Z,19.80
2019-05-02T02:50:12.228Z,19.30
2019-05-02T02:51:22.197Z,21.40
2019-05-02T02:52:12.544Z,19.10
2019-05-02T02:53:18.334Z,20.00
2019-05-02T02:54:12.829Z,19.30
2019-05-02T02:55:16.126Z,20.80
2019-05-02T02:56:13.204Z,20.10
2019-05-02T02:57:25.672Z,20.60
2019-05-02T02:58:13.529Z,20.20
2019-05-02T02:59:19.349Z,19.40
2019-05-02T03:00:13.929Z,20.80
2019-05-02T03:01:14.161Z,21.00
2019-05-02T03:02:14.394Z,23.60
2019-05-02T03:03:14.471Z,22.50
2019-05-02T03:04:14.570Z,24.30
2019-05-02T03:05:18.606Z,23.80
2019-05-02T03:06:14.978Z,23.00
2019-05-02T03:07:24.667Z,24.30
2019-05-02T03:08:15.375Z,24.20
2019-05-02T03:09:20.258Z,23.70
2019-05-02T03:10:15.635Z,22.70
2019-05-02T03:11:22.305Z,23.10
2019-05-02T03:12:16.005Z,22.90
2019-05-02T03:13:21.628Z,22.70
2019-05-02T03:14:16.241Z,21.70
2019-05-02T03:15:20.950Z,22.00
2019-05-02T03:16:16.469Z,24.40
2019-05-02T03:17:20.285Z,23.40
2019-05-02T03:18:16.871Z,22.90
2019-05-02T03:19:21.447Z,24.20
2019-05-02T03:20:17.253Z,22.40
2019-05-02T03:21:20.337Z,20.60
2019-05-02T03:22:17.646Z,20.00
2019-05-02T03:23:21.695Z,22.20
2019-05-02T03:24:18.004Z,22.20
2019-05-02T03:25:25.093Z,21.80
2019-05-02T03:26:18.288Z,19.70
2019-05-02T03:27:18.501Z,22.30
2019-05-02T03:28:20.992Z,24.60
2019-05-02T03:29:18.812Z,23.70
2019-05-02T03:30:30.971Z,22.00
2019-05-02T03:31:25.458Z,22.50
2019-05-02T03:32:31.590Z,23.30
2019-05-02T03:33:19.517Z,25.20
2019-05-02T03:34:19.716Z,24.00
2019-05-02T03:35:40.238Z,24.10
2019-05-02T03:36:29.745Z,21.60
2019-05-02T03:37:20.242Z,24.70
2019-05-02T03:38:31.555Z,26.70
2019-05-02T03:39:20.527Z,23.20
2019-05-02T03:40:20.725Z,22.80
2019-05-02T03:41:23.453Z,22.30
2019-05-02T03:42:21.193Z,24.60
2019-05-02T03:43:25.910Z,23.90
2019-05-02T03:44:25.806Z,21.10
2019-05-02T03:45:21.597Z,24.80
2019-05-02T03:46:22.780Z,24.00
2019-05-02T03:47:21.861Z,23.60
2019-05-02T03:48:25.636Z,26.30
2019-05-02T03:49:22.249Z,26.50
2019-05-02T03:50:31.646Z,27.60
2019-05-02T03:51:25.221Z,25.70
2019-05-02T03:52:22.735Z,27.50
2019-05-02T03:53:25.254Z,24.80
2019-05-02T03:54:23.001Z,25.80
2019-05-02T03:55:23.818Z,25.20
2019-05-02T03:56:23.399Z,26.40
2019-05-02T03:57:31.707Z,24.60
2019-05-02T03:58:23.817Z,24.50
2019-05-02T03:59:37.083Z,25.10
2019-05-02T04:00:24.578Z,23.60
2019-05-02T04:01:24.309Z,25.80
2019-05-02T04:02:24.564Z,26.10
2019-05-02T04:03:24.718Z,24.00
2019-05-02T04:04:24.831Z,26.30
2019-05-02T04:05:24.940Z,24.30
2019-05-02T04:06:25.022Z,26.10
2019-05-02T04:07:25.208Z,27.20
2019-05-02T04:08:25.449Z,23.60
2019-05-02T04:09:25.535Z,27.90
2019-05-02T04:10:25.719Z,24.40
2019-05-02T04:11:26.015Z,27.00
2019-05-02T04:12:26.077Z,25.60
2019-05-02T04:13:30.024Z,21.80
2019-05-02T04:14:37.190Z,24.00
2019-05-02T04:15:28.788Z,23.40
2019-05-02T04:16:26.652Z,25.10
2019-05-02T04:17:28.892Z,24.40
2019-05-02T04:18:27.097Z,24.50
2019-05-02T04:19:28.563Z,25.40
2019-05-02T04:20:27.526Z,23.00
2019-05-02T04:21:27.782Z,23.10
2019-05-02T04:22:27.938Z,24.50
2019-05-02T04:23:29.859Z,23.50
2019-05-02T04:24:28.264Z,23.90
2019-05-02T04:25:34.045Z,22.70
2019-05-02T04:26:28.656Z,23.20
2019-05-02T04:27:34.165Z,23.20
2019-05-02T04:28:29.220Z,25.40
2019-05-02T04:29:31.099Z,24.60
2019-05-02T04:30:29.381Z,23.90
2019-05-02T04:31:31.540Z,24.70
2019-05-02T04:32:29.574Z,22.90
2019-05-02T04:33:34.695Z,25.00
2019-05-02T04:34:29.982Z,26.00
2019-05-02T04:35:34.816Z,25.70
2019-05-02T04:36:30.346Z,25.20
2019-05-02T04:37:34.427Z,26.00
2019-05-02T04:38:39.064Z,26.40
2019-05-02T04:39:30.763Z,24.80
2019-05-02T04:40:34.824Z,24.40
2019-05-02T04:41:34.148Z,26.20
2019-05-02T04:42:31.254Z,26.50
2019-05-02T04:43:31.362Z,26.30
2019-05-02T04:44:44.197Z,25.50
2019-05-02T04:45:50.915Z,25.60
2019-05-02T04:46:38.592Z,25.50
2019-05-02T04:47:35.282Z,25.10
2019-05-02T04:48:40.369Z,26.90
2019-05-02T04:49:38.610Z,25.90
2019-05-02T04:50:33.748Z,25.60
2019-05-02T04:51:33.599Z,25.50
2019-05-02T04:52:40.819Z,30.30
2019-05-02T04:53:40.888Z,27.30
2019-05-02T04:54:33.135Z,26.50
2019-05-02T04:55:33.622Z,27.50
2019-05-02T04:56:33.402Z,27.00
2019-05-02T04:57:36.937Z,28.20
2019-05-02T04:58:37.190Z,27.70
2019-05-02T04:59:34.012Z,27.20
2019-05-02T05:00:34.136Z,26.40
2019-05-02T05:01:43.375Z,27.60
2019-05-02T05:02:37.299Z,29.60
2019-05-02T05:03:34.751Z,25.10
2019-05-02T05:04:42.481Z,26.20
2019-05-02T05:05:37.781Z,25.60
2019-05-02T05:06:40.513Z,25.80
2019-05-02T05:07:43.541Z,27.00
2019-05-02T05:08:41.257Z,27.90
2019-05-02T05:09:39.734Z,27.40
2019-05-02T05:10:41.346Z,27.30
2019-05-02T05:11:38.136Z,25.50
2019-05-02T05:12:39.966Z,26.70
2019-05-02T05:13:38.885Z,27.20
2019-05-02T05:14:39.430Z,24.80
2019-05-02T05:15:44.549Z,26.10
2019-05-02T05:16:37.267Z,24.40
2019-05-02T05:17:37.562Z,23.50
2019-05-02T05:18:37.984Z,26.30
2019-05-02T05:19:37.621Z,26.00
2019-05-02T05:20:38.586Z,27.30
2019-05-02T05:21:40.619Z,25.30
2019-05-02T05:22:44.262Z,26.80
2019-05-02T05:23:38.407Z,26.50
2019-05-02T05:24:42.162Z,24.80
2019-05-02T05:25:38.313Z,24.00
2019-05-02T05:26:42.743Z,25.70
2019-05-02T05:27:38.680Z,24.20
2019-05-02T05:28:42.681Z,24.10
2019-05-02T05:29:39.072Z,24.10
2019-05-02T05:30:45.083Z,27.70
2019-05-02T05:31:39.207Z,25.40
2019-05-02T05:32:39.343Z,26.30
2019-05-02T05:33:40.131Z,27.10
2019-05-02T05:34:42.267Z,29.60
2019-05-02T05:35:43.183Z,27.60
2019-05-02T05:36:42.622Z,25.70
2019-05-02T05:37:43.194Z,25.90
2019-05-02T05:38:40.758Z,25.40
2019-05-02T05:39:43.165Z,25.30
2019-05-02T05:40:40.558Z,25.40
2019-05-02T05:41:42.810Z,26.00
2019-05-02T05:42:40.965Z,25.70
2019-05-02T05:43:44.906Z,26.40
2019-05-02T05:44:41.209Z,24.60
2019-05-02T05:45:51.174Z,25.90
2019-05-02T05:46:42.716Z,28.80
2019-05-02T05:47:41.627Z,27.30
2019-05-02T05:48:41.868Z,26.30
2019-05-02T05:49:42.053Z,28.30
2019-05-02T05:50:42.272Z,25.60
2019-05-02T05:51:42.461Z,26.20
2019-05-02T05:52:42.743Z,27.50
2019-05-02T05:53:42.865Z,24.50
2019-05-02T05:54:43.094Z,26.90
2019-05-02T05:55:43.185Z,25.50
2019-05-02T05:56:43.460Z,26.40
2019-05-02T05:57:43.523Z,29.30
2019-05-02T05:58:50.419Z,29.40
2019-05-02T05:59:43.951Z,29.30
2019-05-02T06:00:45.825Z,26.70
2019-05-02T06:01:44.411Z,29.90
2019-05-02T06:02:55.517Z,27.20
2019-05-02T06:03:45.102Z,28.60
2019-05-02T06:04:44.828Z,29.00
2019-05-02T06:05:45.073Z,32.10
2019-05-02T06:06:45.130Z,30.10
2019-05-02T06:07:47.307Z,28.80
2019-05-02T06:08:49.115Z,27.40
2019-05-02T06:09:45.590Z,30.30
2019-05-02T06:10:45.791Z,30.00
2019-05-02T06:11:45.996Z,28.80
2019-05-02T06:12:46.204Z,28.10
2019-05-02T06:13:48.698Z,31.50
2019-05-02T06:14:46.698Z,29.40
2019-05-02T06:15:46.747Z,28.20
2019-05-02T06:16:51.642Z,30.80
2019-05-02T06:17:47.166Z,29.70
2019-05-02T06:18:47.824Z,28.40
2019-05-02T06:19:48.284Z,28.70
2019-05-02T06:20:48.048Z,27.60
2019-05-02T06:21:48.057Z,29.80
2019-05-02T06:22:48.332Z,26.50
2019-05-02T06:23:48.513Z,30.10
2019-05-02T06:24:50.861Z,28.90
2019-05-02T06:25:49.851Z,30.10
2019-05-02T06:26:49.808Z,29.60
2019-05-02T06:27:48.817Z,30.30
2019-05-02T06:28:49.055Z,29.00
2019-05-02T06:29:51.182Z,30.90
2019-05-02T06:30:49.320Z,30.10
2019-05-02T06:31:49.502Z,30.00
2019-05-02T06:32:50.139Z,27.40
2019-05-02T06:33:49.952Z,28.80
2019-05-02T06:34:50.031Z,31.50
2019-05-02T06:35:51.886Z,32.70
2019-05-02T06:36:50.344Z,34.10
2019-05-02T06:37:51.972Z,29.90
2019-05-02T06:38:52.290Z,33.30
2019-05-02T06:39:50.883Z,29.80
2019-05-02T06:40:51.134Z,33.70
2019-05-02T06:41:51.990Z,35.60
2019-05-02T06:42:51.383Z,33.50
2019-05-02T06:43:51.570Z,32.50
2019-05-02T06:44:54.816Z,31.50
2019-05-02T06:45:51.883Z,30.80
2019-05-02T06:46:51.973Z,30.40
2019-05-02T06:47:52.087Z,30.40
2019-05-02T06:48:52.559Z,31.90
2019-05-02T06:49:56.068Z,32.80
2019-05-02T06:50:52.597Z,33.60
2019-05-02T06:51:56.240Z,33.40
2019-05-02T06:52:53.073Z,33.90
2019-05-02T06:53:53.262Z,35.90
2019-05-02T06:54:54.056Z,36.50
2019-05-02T06:55:53.543Z,34.30
2019-05-02T06:56:53.954Z,32.80
2019-05-02T06:57:57.093Z,33.50
2019-05-02T06:58:54.196Z,35.10
2019-05-02T06:59:55.010Z,35.90
2019-05-02T07:00:58.230Z,36.40
2019-05-02T07:01:57.352Z,35.00
2019-05-02T07:02:54.809Z,36.20
2019-05-02T07:03:54.961Z,30.40
2019-05-02T07:04:56.014Z,31.80
2019-05-02T07:05:58.842Z,33.70
2019-05-02T07:06:59.243Z,34.80
2019-05-02T07:07:55.768Z,37.90
2019-05-02T07:08:55.817Z,38.20
2019-05-02T07:09:55.985Z,37.80
2019-05-02T07:11:01.115Z,35.80
2019-05-02T07:11:58.572Z,37.30
2019-05-02T07:13:09.802Z,35.50
2019-05-02T07:13:56.898Z,36.10
2019-05-02T07:15:01.678Z,36.60
2019-05-02T07:15:57.444Z,39.10
2019-05-02T07:16:57.232Z,36.50
2019-05-02T07:17:57.450Z,37.90
2019-05-02T07:18:57.689Z,36.00
2019-05-02T07:19:58.921Z,36.30
2019-05-02T07:20:57.707Z,37.70
2019-05-02T07:21:58.496Z,34.80
2019-05-02T07:22:58.190Z,38.40
2019-05-02T07:23:59.066Z,33.80
2019-05-02T07:25:01.894Z,36.00
2019-05-02T07:26:00.379Z,34.90
2019-05-02T07:27:02.018Z,33.00
2019-05-02T07:28:04.649Z,34.90
2019-05-02T07:29:00.249Z,37.00
2019-05-02T07:30:00.447Z,34.90
2019-05-02T07:31:00.864Z,37.20
2019-05-02T07:32:01.688Z,34.60
2019-05-02T07:33:02.411Z,37.40
2019-05-02T07:33:59.944Z,32.60
2019-05-02T07:35:00.101Z,36.50
2019-05-02T07:36:01.464Z,35.60
2019-05-02T07:37:00.347Z,33.40
2019-05-02T07:38:00.473Z,38.70
2019-05-02T07:39:05.158Z,38.40
2019-05-02T07:40:00.847Z,39.80
2019-05-02T07:41:01.127Z,41.30
2019-05-02T07:42:05.799Z,39.90
2019-05-02T07:43:01.455Z,40.50
2019-05-02T07:44:04.360Z,40.50
2019-05-02T07:45:04.425Z,41.20
2019-05-02T07:46:01.779Z,41.10
2019-05-02T07:47:02.841Z,40.30
2019-05-02T07:48:02.047Z,43.00
2019-05-02T07:49:02.334Z,42.00
2019-05-02T07:50:05.300Z,41.90
2019-05-02T07:51:02.907Z,41.50
2019-05-02T07:52:03.030Z,38.60
2019-05-02T07:53:04.355Z,42.90
2019-05-02T07:54:03.367Z,44.00
2019-05-02T07:55:06.308Z,40.80
2019-05-02T07:56:03.700Z,40.50
2019-05-02T07:57:03.686Z,43.10
2019-05-02T07:58:06.989Z,40.80
2019-05-02T07:59:04.086Z,38.80
2019-05-02T08:00:04.891Z,38.80
2019-05-02T08:01:07.998Z,38.50
2019-05-02T08:02:04.617Z,41.30
2019-05-02T08:03:05.172Z,40.00
2019-05-02T08:04:11.290Z,39.20
2019-05-02T08:05:05.220Z,39.70
2019-05-02T08:06:05.560Z,39.60
2019-05-02T08:07:05.597Z,37.30
2019-05-02T08:08:05.990Z,41.00
2019-05-02T08:09:07.052Z,39.30
2019-05-02T08:10:06.193Z,36.70
2019-05-02T08:11:06.278Z,37.80
2019-05-02T08:12:06.442Z,36.00
2019-05-02T08:13:06.667Z,38.60
2019-05-02T08:14:06.708Z,38.10
2019-05-02T08:15:07.386Z,36.50
2019-05-02T08:16:07.179Z,37.40
2019-05-02T08:17:16.142Z,41.80
2019-05-02T08:18:07.621Z,40.10
2019-05-02T08:19:07.737Z,39.00
2019-05-02T08:20:13.440Z,38.80
2019-05-02T08:21:07.903Z,34.70
2019-05-02T08:22:13.223Z,37.40
2019-05-02T08:23:07.962Z,37.70
2019-05-02T08:24:08.291Z,41.60
2019-05-02T08:25:10.581Z,38.80
2019-05-02T08:26:08.674Z,39.10
2019-05-02T08:27:08.496Z,38.60
2019-05-02T08:28:10.064Z,40.20
2019-05-02T08:29:08.934Z,38.20
2019-05-02T08:30:09.065Z,37.40
2019-05-02T08:31:13.552Z,36.70
2019-05-02T08:32:09.330Z,39.10
2019-05-02T08:33:09.448Z,38.60
2019-05-02T08:34:14.627Z,38.40
2019-05-02T08:35:09.894Z,35.70
2019-05-02T08:36:10.111Z,38.60
2019-05-02T08:37:10.336Z,39.40
2019-05-02T08:38:12.694Z,41.50
2019-05-02T08:39:10.527Z,37.80
2019-05-02T08:40:12.013Z,38.20
2019-05-02T08:41:10.952Z,38.80
2019-05-02T08:42:11.170Z,37.50
2019-05-02T08:43:11.358Z,39.80
2019-05-02T08:44:11.573Z,37.60
2019-05-02T08:45:11.778Z,37.90
2019-05-02T08:46:14.415Z,40.60
2019-05-02T08:47:18.695Z,37.00
2019-05-02T08:48:12.575Z,39.90
2019-05-02T08:49:14.191Z,35.60
2019-05-02T08:50:12.723Z,35.40
2019-05-02T08:51:12.943Z,37.80
2019-05-02T08:52:13.171Z,35.30
2019-05-02T08:53:14.365Z,36.60
2019-05-02T08:54:13.572Z,36.10
2019-05-02T08:55:13.797Z,35.30
2019-05-02T08:56:16.496Z,37.10
2019-05-02T08:57:14.666Z,36.00
2019-05-02T08:58:15.692Z,34.40
2019-05-02T08:59:14.464Z,34.10
2019-05-02T09:00:15.723Z,31.90
2019-05-02T09:01:15.484Z,30.40
2019-05-02T09:02:15.037Z,32.60
2019-05-02T09:03:15.279Z,34.90
2019-05-02T09:04:17.342Z,31.30
2019-05-02T09:05:15.629Z,32.30
2019-05-02T09:06:22.192Z,31.00
2019-05-02T09:07:16.128Z,31.60
2019-05-02T09:08:16.839Z,32.90
2019-05-02T09:09:16.475Z,31.00
2019-05-02T09:10:16.621Z,32.00
2019-05-02T09:11:16.784Z,30.90
2019-05-02T09:12:19.908Z,29.90
2019-05-02T09:13:23.667Z,29.20
2019-05-02T09:14:17.414Z,30.30
2019-05-02T09:15:17.636Z,29.20
2019-05-02T09:16:23.766Z,27.20
2019-05-02T09:17:18.021Z,29.60
2019-05-02T09:18:18.243Z,26.90
2019-05-02T09:19:21.403Z,29.80
2019-05-02T09:20:20.820Z,29.60
2019-05-02T09:21:18.650Z,29.30
2019-05-02T09:22:18.949Z,29.20
2019-05-02T09:23:19.061Z,30.70
2019-05-02T09:24:23.268Z,32.00
2019-05-02T09:25:19.232Z,32.20
2019-05-02T09:26:33.279Z,30.10
2019-05-02T09:27:19.660Z,30.00
2019-05-02T09:28:22.457Z,28.30
2019-05-02T09:29:22.062Z,28.20
2019-05-02T09:30:22.775Z,29.90
2019-05-02T09:31:22.512Z,26.70
2019-05-02T09:32:24.769Z,26.70
2019-05-02T09:33:22.551Z,26.00
2019-05-02T09:34:22.956Z,26.50
2019-05-02T09:35:22.948Z,26.20
2019-05-02T09:36:22.656Z,26.80
2019-05-02T09:37:22.751Z,25.10
2019-05-02T09:38:22.219Z,26.60
2019-05-02T09:39:22.942Z,28.10
2019-05-02T09:40:22.257Z,28.10
2019-05-02T09:41:22.212Z,29.00
2019-05-02T09:42:21.950Z,28.30
2019-05-02T09:43:22.845Z,26.20
2019-05-02T09:44:23.008Z,28.00
2019-05-02T09:45:22.807Z,25.40
2019-05-02T09:46:22.665Z,28.10
2019-05-02T09:47:27.354Z,26.50
2019-05-02T09:48:26.794Z,24.10
2019-05-02T09:49:23.346Z,25.10
2019-05-02T09:50:30.036Z,26.10
2019-05-02T09:51:23.546Z,24.60
2019-05-02T09:52:23.803Z,24.10
2019-05-02T09:53:25.448Z,24.30
2019-05-02T09:54:24.205Z,22.40
2019-05-02T09:55:24.511Z,23.30
2019-05-02T09:56:24.881Z,22.10
2019-05-02T09:57:24.891Z,24.80
2019-05-02T09:58:25.325Z,23.50
2019-05-02T09:59:30.068Z,22.30
2019-05-02T10:00:26.749Z,23.00
2019-05-02T10:01:26.058Z,21.50
2019-05-02T10:02:26.459Z,21.20
2019-05-02T10:03:26.642Z,20.40
2019-05-02T10:04:26.179Z,22.30
2019-05-02T10:05:26.630Z,22.50
2019-05-02T10:06:26.587Z,24.10
2019-05-02T10:07:26.497Z,26.00
2019-05-02T10:08:29.118Z,27.20
2019-05-02T10:09:27.318Z,24.90
2019-05-02T10:10:27.201Z,25.80
2019-05-02T10:11:27.244Z,25.80
2019-05-02T10:12:27.411Z,24.20
2019-05-02T10:13:27.475Z,23.50
2019-05-02T10:14:27.709Z,24.60
2019-05-02T10:15:28.065Z,25.70
2019-05-02T10:16:28.025Z,24.40
2019-05-02T10:17:28.425Z,24.90
2019-05-02T10:18:30.180Z,23.50
2019-05-02T10:19:28.634Z,24.10
2019-05-02T10:20:34.193Z,22.80
2019-05-02T10:21:28.665Z,23.30
2019-05-02T10:22:33.828Z,21.80
2019-05-02T10:23:29.389Z,23.20
2019-05-02T10:24:29.785Z,21.60
2019-05-02T10:25:30.745Z,23.70
2019-05-02T10:26:29.885Z,22.00
2019-05-02T10:27:32.171Z,22.10
2019-05-02T10:28:31.720Z,20.40
2019-05-02T10:29:32.717Z,23.10
2019-05-02T10:30:32.793Z,21.80
2019-05-02T10:31:37.458Z,22.40
2019-05-02T10:32:32.533Z,25.60
2019-05-02T10:33:37.345Z,25.50
2019-05-02T10:34:32.901Z,22.40
2019-05-02T10:35:37.437Z,23.20
2019-05-02T10:36:32.542Z,26.10
2019-05-02T10:37:38.047Z,24.00
2019-05-02T10:38:32.604Z,23.80
2019-05-02T10:39:36.129Z,24.00
2019-05-02T10:40:32.138Z,21.90
2019-05-02T10:41:39.451Z,21.30
2019-05-02T10:42:32.550Z,19.20
2019-05-02T10:43:32.983Z,19.60
2019-05-02T10:44:36.364Z,20.60
2019-05-02T10:45:32.673Z,20.90
2019-05-02T10:46:37.553Z,21.00
2019-05-02T10:47:36.101Z,22.20
2019-05-02T10:48:33.367Z,22.00
2019-05-02T10:49:33.499Z,21.10
2019-05-02T10:50:34.036Z,19.80
2019-05-02T10:51:33.927Z,23.60
2019-05-02T10:52:34.299Z,23.60
2019-05-02T10:53:33.950Z,21.60
2019-05-02T10:54:37.470Z,23.10
2019-05-02T10:55:34.352Z,20.20
2019-05-02T10:56:34.387Z,19.60
2019-05-02T10:57:34.501Z,21.50
2019-05-02T10:58:35.799Z,21.90
2019-05-02T10:59:35.021Z,23.00
2019-05-02T11:00:35.146Z,22.60
2019-05-02T11:01:35.174Z,23.20
2019-05-02T11:02:36.523Z,24.50
2019-05-02T11:03:38.029Z,22.90
2019-05-02T11:04:35.843Z,22.90
2019-05-02T11:05:37.495Z,23.70
2019-05-02T11:06:41.595Z,22.80
2019-05-02T11:07:36.305Z,20.60
2019-05-02T11:08:36.848Z,19.80
2019-05-02T11:09:36.828Z,18.50
2019-05-02T11:10:37.120Z,18.70
2019-05-02T11:11:36.926Z,19.10
2019-05-02T11:12:44.390Z,19.00
2019-05-02T11:13:37.540Z,16.80
2019-05-02T11:14:37.393Z,16.80
2019-05-02T11:15:37.690Z,17.50
2019-05-02T11:16:38.107Z,16.50
2019-05-02T11:17:37.760Z,16.30
2019-05-02T11:18:42.338Z,16.40
2019-05-02T11:19:38.481Z,15.50
2019-05-02T11:20:38.473Z,16.10
2019-05-02T11:21:46.761Z,19.70
2019-05-02T11:22:38.742Z,16.90
2019-05-02T11:23:39.136Z,17.70
2019-05-02T11:24:39.307Z,19.50
2019-05-02T11:25:39.436Z,18.50
2019-05-02T11:26:40.479Z,15.80
2019-05-02T11:27:41.885Z,15.90
2019-05-02T11:28:41.575Z,19.50
2019-05-02T11:29:40.116Z,18.50
2019-05-02T11:30:41.993Z,17.00
2019-05-02T11:31:42.603Z,18.10
2019-05-02T11:32:41.710Z,21.60
2019-05-02T11:33:41.860Z,18.20
2019-05-02T11:34:42.069Z,18.70
2019-05-02T11:35:48.787Z,18.50
2019-05-02T11:36:41.994Z,19.90
2019-05-02T11:37:42.258Z,19.50
2019-05-02T11:38:45.710Z,17.80
2019-05-02T11:39:46.588Z,18.00
2019-05-02T11:40:42.615Z,19.60
2019-05-02T11:41:42.292Z,19.60
2019-05-02T11:42:42.080Z,19.40
2019-05-02T11:43:44.859Z,17.70
2019-05-02T11:44:42.270Z,18.60
2019-05-02T11:45:42.547Z,19.30
2019-05-02T11:46:46.736Z,19.40
2019-05-02T11:47:42.947Z,20.10
2019-05-02T11:48:55.567Z,21.40
2019-05-02T11:49:46.802Z,18.90
2019-05-02T11:50:43.464Z,19.80
2019-05-02T11:51:47.044Z,19.30
2019-05-02T11:52:43.655Z,21.20
2019-05-02T11:53:44.580Z,17.90
2019-05-02T11:54:48.334Z,18.80
2019-05-02T11:55:44.585Z,20.40
2019-05-02T11:56:48.961Z,19.20
2019-05-02T11:57:46.254Z,19.60
2019-05-02T11:58:48.152Z,18.40
2019-05-02T11:59:45.442Z,19.00
2019-05-02T12:00:49.660Z,20.80
2019-05-02T12:01:56.777Z,18.70
2019-05-02T12:02:49.131Z,18.80
2019-05-02T12:03:46.017Z,17.90
2019-05-02T12:04:51.623Z,19.50
2019-05-02T12:05:46.331Z,17.40
2019-05-02T12:06:49.896Z,18.20
2019-05-02T12:07:46.647Z,18.70
2019-05-02T12:08:49.389Z,18.50
2019-05-02T12:09:55.139Z,18.90
2019-05-02T12:10:47.517Z,19.80
2019-05-02T12:11:51.479Z,18.20
2019-05-02T12:12:49.260Z,18.30
2019-05-02T12:13:52.756Z,20.00
2019-05-02T12:14:48.182Z,21.20
2019-05-02T12:15:48.041Z,18.70
2019-05-02T12:16:48.133Z,15.50
2019-05-02T12:17:48.475Z,16.10
2019-05-02T12:18:48.663Z,16.10
2019-05-02T12:19:48.812Z,17.00
2019-05-02T12:20:48.903Z,19.80
2019-05-02T12:21:48.989Z,18.10
2019-05-02T12:22:48.957Z,19.20
2019-05-02T12:23:48.933Z,17.90
2019-05-02T12:24:49.122Z,18.20
2019-05-02T12:25:49.350Z,19.20
2019-05-02T12:26:49.978Z,16.10
2019-05-02T12:27:49.742Z,19.60
2019-05-02T12:28:49.892Z,18.90
2019-05-02T12:29:57.672Z,18.30
2019-05-02T12:30:51.946Z,20.10
2019-05-02T12:31:54.777Z,18.60
2019-05-02T12:32:50.510Z,17.20
2019-05-02T12:33:52.653Z,18.50
2019-05-02T12:34:52.595Z,19.20
2019-05-02T12:35:52.531Z,18.50
2019-05-02T12:36:52.288Z,21.20
2019-05-02T12:37:55.100Z,21.30
2019-05-02T12:38:52.875Z,21.90
2019-05-02T12:39:53.793Z,20.30
2019-05-02T12:40:53.041Z,18.60
2019-05-02T12:41:53.655Z,19.30
2019-05-02T12:42:52.608Z,21.10
2019-05-02T12:43:52.590Z,22.90
2019-05-02T12:44:53.290Z,19.20
2019-05-02T12:45:53.010Z,19.50
2019-05-02T12:46:55.660Z,18.30
2019-05-02T12:47:53.185Z,18.80
2019-05-02T12:48:55.418Z,18.80
2019-05-02T12:49:53.774Z,20.00
2019-05-02T12:50:56.084Z,20.10
2019-05-02T12:51:53.914Z,17.80
2019-05-02T12:52:55.653Z,20.10
2019-05-02T12:53:54.220Z,18.00
2019-05-02T12:54:54.452Z,18.10
2019-05-02T12:55:54.521Z,15.60